createdAt,value
2023-05-03T00:01:46.183Z,7.50
2023-05-03T00:06:48.544Z,8.20
2023-05-03T00:11:52.107Z,5.77
2023-05-03T00:16:54.101Z,6.77
2023-05-03T00:21:56.033Z,8.67
2023-05-03T00:26:59.700Z,6.93
2023-05-03T00:32:02.660Z,6.33
2023-05-03T00:37:05.071Z,7.63
2023-05-03T00:42:08.445Z,6.23
2023-05-03T00:47:11.090Z,6.83
2023-05-03T00:52:12.944Z,7.53
2023-05-03T00:57:16.733Z,6.47
2023-05-03T01:02:19.020Z,8.17
2023-05-03T01:07:31.254Z,6.13
2023-05-03T01:12:49.194Z,5.10
2023-05-03T01:17:55.194Z,6.23
2023-05-03T01:23:06.666Z,7.57
2023-05-03T01:28:10.511Z,4.17
2023-05-03T01:33:21.903Z,3.53
2023-05-03T01:38:24.664Z,4.40
2023-05-03T01:43:31.574Z,5.87
2023-05-03T01:48:33.597Z,4.80
2023-05-03T01:53:35.363Z,2.77
2023-05-03T01:58:38.919Z,2.40
2023-05-03T02:03:41.137Z,2.90
2023-05-03T02:08:42.818Z,6.33
2023-05-03T02:13:47.069Z,4.97
2023-05-03T02:18:48.998Z,3.47
2023-05-03T02:23:51.170Z,2.13
2023-05-03T02:28:56.161Z,6.13
2023-05-03T02:33:59.175Z,6.60
2023-05-03T02:39:01.511Z,7.40
2023-05-03T02:44:05.286Z,10.97
2023-05-03T02:49:07.421Z,8.30
2023-05-03T02:54:09.785Z,7.13
2023-05-03T02:59:13.056Z,6.80
2023-05-03T03:04:16.005Z,7.20
2023-05-03T03:09:18.109Z,7.17
2023-05-03T03:14:21.645Z,8.60
2023-05-03T03:19:23.758Z,7.50
2023-05-03T03:24:25.713Z,8.27
2023-05-03T03:29:30.362Z,8.27
2023-05-03T03:34:32.541Z,8.40
2023-05-03T03:39:34.781Z,9.43
2023-05-03T03:44:38.648Z,6.90
2023-05-03T03:49:41.421Z,9.53
2023-05-03T03:54:43.583Z,13.53
2023-05-03T03:59:46.944Z,11.70
2023-05-03T04:04:49.164Z,9.53
2023-05-03T04:09:51.204Z,10.90
2023-05-03T04:14:55.266Z,11.47
2023-05-03T04:19:58.979Z,11.17
2023-05-03T04:25:01.406Z,14.67
2023-05-03T04:30:05.746Z,22.30
2023-05-03T04:35:10.789Z,24.37
2023-05-03T04:40:13.472Z,29.60
2023-05-03T04:45:18.870Z,23.90
2023-05-03T04:50:21.286Z,23.37
2023-05-03T04:55:23.187Z,23.87
2023-05-03T05:00:26.664Z,21.30
2023-05-03T05:05:28.726Z,24.60
2023-05-03T05:10:30.957Z,23.53
2023-05-03T05:15:34.328Z,25.03
2023-05-03T05:20:36.571Z,20.33
2023-05-03T05:25:38.547Z,23.70
2023-05-03T05:30:42.221Z,25.13
2023-05-03T05:35:46.458Z,29.53
2023-05-03T05:40:48.394Z,23.80
2023-05-03T05:45:52.236Z,24.80
2023-05-03T05:50:54.558Z,24.80
2023-05-03T05:55:56.802Z,22.30
2023-05-03T06:01:01.578Z,17.07
2023-05-03T06:06:03.829Z,21.27
2023-05-03T06:11:05.799Z,17.87
2023-05-03T06:16:09.413Z,17.67
2023-05-03T06:21:12.116Z,15.73
2023-05-03T06:26:14.463Z,18.97
2023-05-03T06:31:18.157Z,16.37
2023-05-03T06:36:20.509Z,19.10
2023-05-03T06:41:22.481Z,13.87
2023-05-03T06:46:25.766Z,14.50
2023-05-03T06:51:29.950Z,13.70
2023-05-03T06:56:32.183Z,14.33
2023-05-03T07:01:36.108Z,12.60
2023-05-03T07:06:52.455Z,12.77
2023-05-03T07:11:57.736Z,11.77
2023-05-03T07:17:01.366Z,13.13
2023-05-03T07:22:04.024Z,11.83
2023-05-03T07:27:06.809Z,11.87
2023-05-03T07:32:10.781Z,11.27
2023-05-03T07:37:13.084Z,14.37
2023-05-03T07:42:15.426Z,10.43
2023-05-03T07:47:19.044Z,8.50
2023-05-03T07:52:21.582Z,9.90
2023-05-03T07:57:24.621Z,10.33
2023-05-03T08:02:28.441Z,8.67
2023-05-03T08:07:30.904Z,10.10
2023-05-03T08:12:32.890Z,10.73
2023-05-03T08:17:42.166Z,9.27
2023-05-03T08:22:45.401Z,8.40
2023-05-03T08:27:47.342Z,9.57
2023-05-03T08:32:51.706Z,7.90
2023-05-03T08:37:54.090Z,9.87
2023-05-03T08:42:57.931Z,9.53
2023-05-03T08:48:03.707Z,8.13
2023-05-03T08:53:06.373Z,7.00
2023-05-03T08:58:12.827Z,6.43
2023-05-03T09:03:16.844Z,7.47
2023-05-03T09:08:22.932Z,7.65
2023-05-03T09:13:31.803Z,6.70
2023-05-03T09:18:35.256Z,7.15
2023-05-03T09:23:37.568Z,4.55
2023-05-03T09:28:43.811Z,4.40
2023-05-03T09:33:47.192Z,5.30
2023-05-03T09:38:50.208Z,3.10
2023-05-03T09:43:55.637Z,3.42
2023-05-03T09:48:59.089Z,3.75
2023-05-03T09:54:01.373Z,4.65
2023-05-03T09:59:03.983Z,6.18
2023-05-03T10:04:08.368Z,6.40
2023-05-03T10:09:16.673Z,5.68
2023-05-03T10:14:19.319Z,5.65
2023-05-03T10:19:28.823Z,5.85
2023-05-03T10:24:31.025Z,5.70
2023-05-03T10:29:50.376Z,4.75
2023-05-03T10:34:58.376Z,15.63
2023-05-03T10:40:07.989Z,6.45
2023-05-03T10:45:12.809Z,8.05
2023-05-03T10:50:29.262Z,6.10
2023-05-03T10:55:31.446Z,7.10
2023-05-03T11:00:39.194Z,6.10
2023-05-03T11:05:43.551Z,5.85
2023-05-03T11:10:46.512Z,3.83
2023-05-03T11:15:48.870Z,5.53
2023-05-03T11:20:53.917Z,4.95
2023-05-03T11:25:57.903Z,5.63
2023-05-03T11:31:02.207Z,3.40
2023-05-03T11:36:08.407Z,3.63
2023-05-03T11:41:16.596Z,4.30
2023-05-03T11:46:21.949Z,3.78
2023-05-03T11:51:27.346Z,5.70
2023-05-03T11:56:29.415Z,4.38
2023-05-03T12:01:32.226Z,3.90
2023-05-03T12:06:37.456Z,4.95
2023-05-03T12:11:45.133Z,6.35
2023-05-03T12:16:50.857Z,5.22
2023-05-03T12:22:09.391Z,5.43
2023-05-03T12:27:19.397Z,5.30
2023-05-03T12:32:23.112Z,5.60
2023-05-03T12:37:27.774Z,3.72
2023-05-03T12:42:33.016Z,4.93
2023-05-03T12:47:37.489Z,4.32
2023-05-03T12:52:45.149Z,2.70
2023-05-03T12:57:59.046Z,3.03
2023-05-03T13:03:20.740Z,2.50
2023-05-03T13:08:33.520Z,6.00
2023-05-03T13:13:37.474Z,3.30
2023-05-03T13:18:39.753Z,2.83
2023-05-03T13:23:43.368Z,1.88
2023-05-03T13:28:45.170Z,4.47
2023-05-03T13:33:47.026Z,3.53
2023-05-03T13:38:52.012Z,2.67
2023-05-03T13:43:54.310Z,2.88
2023-05-03T13:48:56.806Z,1.63
2023-05-03T13:54:00.952Z,4.40
2023-05-03T13:59:03.285Z,3.13
2023-05-03T14:04:06.323Z,2.22
2023-05-03T14:09:11.027Z,1.75
2023-05-03T14:14:12.868Z,2.92
2023-05-03T14:19:17.620Z,2.17
2023-05-03T14:24:21.178Z,2.20
2023-05-03T14:29:23.831Z,3.83
2023-05-03T14:34:25.869Z,2.22
2023-05-03T14:39:29.433Z,4.30
2023-05-03T14:44:31.692Z,2.10
2023-05-03T14:49:40.507Z,8.93
2023-05-03T14:54:43.924Z,4.70
2023-05-03T14:59:47.466Z,2.58
2023-05-03T15:04:50.489Z,2.63
2023-05-03T15:09:53.911Z,3.88
2023-05-03T15:14:56.006Z,3.08
2023-05-03T15:19:57.931Z,2.60
2023-05-03T15:25:01.611Z,3.00
2023-05-03T15:30:04.437Z,4.43
2023-05-03T15:35:07.689Z,3.00
2023-05-03T15:40:13.770Z,2.70
2023-05-03T15:45:15.924Z,5.32
2023-05-03T15:50:17.952Z,5.13
2023-05-03T15:55:21.431Z,3.85
2023-05-03T16:00:25.614Z,3.22
2023-05-03T16:05:28.072Z,4.97
2023-05-03T16:10:33.139Z,2.80
2023-05-03T16:15:35.494Z,5.28
2023-05-03T16:20:38.021Z,3.78
2023-05-03T16:25:41.580Z,6.93
2023-05-03T16:30:43.916Z,4.70
2023-05-03T16:35:46.157Z,3.70
2023-05-03T16:40:49.780Z,4.72
2023-05-03T16:45:58.469Z,4.85
2023-05-03T16:51:00.773Z,3.70
2023-05-03T16:56:04.442Z,4.13
2023-05-03T17:01:07.997Z,6.15
2023-05-03T17:06:10.406Z,6.60
2023-05-03T17:11:15.123Z,5.95
2023-05-03T17:16:18.552Z,4.93
2023-05-03T17:21:20.972Z,5.80
2023-05-03T17:26:24.825Z,6.47
2023-05-03T17:31:26.821Z,5.87
2023-05-03T17:36:29.803Z,5.87
2023-05-03T17:41:33.919Z,7.20
2023-05-03T17:46:36.660Z,7.87
2023-05-03T17:51:38.745Z,8.67
2023-05-03T17:56:44.861Z,6.23
2023-05-03T18:01:49.297Z,6.70
2023-05-03T18:06:55.839Z,6.23
2023-05-03T18:12:00.220Z,8.43
2023-05-03T18:17:05.861Z,6.17
2023-05-03T18:22:08.689Z,6.63
2023-05-03T18:27:13.726Z,5.83
2023-05-03T18:32:22.807Z,7.20
2023-05-03T18:37:25.656Z,7.57
2023-05-03T18:43:02.085Z,7.33
2023-05-03T18:48:14.880Z,7.57
2023-05-03T18:53:18.164Z,9.17
2023-05-03T18:58:23.113Z,9.30
2023-05-03T19:03:25.722Z,9.83
2023-05-03T19:08:28.940Z,9.83
2023-05-03T19:13:34.153Z,7.03
2023-05-03T19:18:38.055Z,7.70
2023-05-03T19:23:40.944Z,7.93
2023-05-03T19:28:46.565Z,7.43
2023-05-03T19:33:49.184Z,6.97
2023-05-03T19:38:52.163Z,7.83
2023-05-03T19:43:58.322Z,8.13
2023-05-03T19:49:01.047Z,8.13
2023-05-03T19:54:04.053Z,7.60
2023-05-03T19:59:08.100Z,8.97
2023-05-03T20:04:12.496Z,7.93
2023-05-03T20:09:14.906Z,7.60
2023-05-03T20:14:18.948Z,10.83
2023-05-03T20:19:23.540Z,7.90
2023-05-03T20:24:25.887Z,9.27
2023-05-03T20:29:29.664Z,7.33
2023-05-03T20:34:31.806Z,10.40
2023-05-03T20:39:35.451Z,13.30
2023-05-03T20:44:39.321Z,9.03
2023-05-03T20:49:41.333Z,11.50
2023-05-03T20:54:45.631Z,9.47
2023-05-03T20:59:49.258Z,10.17
2023-05-03T21:04:51.579Z,8.70
2023-05-03T21:09:53.552Z,8.00
2023-05-03T21:14:57.153Z,8.27
2023-05-03T21:19:58.939Z,7.97
2023-05-03T21:25:01.353Z,7.73
2023-05-03T21:30:05.369Z,8.40
2023-05-03T21:35:09.358Z,10.40
2023-05-03T21:40:13.381Z,8.80
2023-05-03T21:45:16.949Z,8.73
2023-05-03T21:50:19.775Z,8.57
2023-05-03T21:55:22.204Z,6.60
2023-05-03T22:00:27.480Z,11.07
2023-05-03T22:05:29.326Z,7.97
2023-05-03T22:10:31.477Z,8.63
2023-05-03T22:15:36.141Z,8.20
2023-05-03T22:20:38.393Z,11.80
2023-05-03T22:25:41.116Z,12.70
2023-05-03T22:30:44.470Z,8.10
2023-05-03T22:35:46.564Z,7.97
2023-05-03T22:40:48.669Z,9.73
2023-05-03T22:45:52.158Z,7.43
2023-05-03T22:50:54.112Z,11.53
2023-05-03T22:56:00.985Z,9.10
2023-05-03T23:01:05.653Z,8.33
2023-05-03T23:06:08.494Z,9.27
2023-05-03T23:11:10.568Z,10.50
2023-05-03T23:16:14.750Z,11.63
2023-05-03T23:21:16.845Z,8.17
2023-05-03T23:26:18.882Z,7.83
2023-05-03T23:31:22.837Z,8.53
2023-05-03T23:36:25.270Z,8.37
2023-05-03T23:41:27.359Z,8.40
2023-05-03T23:46:31.240Z,7.73
2023-05-03T23:51:33.070Z,8.23
2023-05-03T23:56:35.243Z,8.30
